Terminal Aerodrome Forecast
Issued by NWS Detroit/Pontiac, MI

Home | Current Version | Previous Version | Text Only | Print | Product List | Glossary On
Versions: 1 2 3 4 5 6 7 8 9 10 11 12 13 14
000
FTUS43 KDTX 292320
TAFFNT
TAF
KFNT 292320Z 3000/3024 25012KT P6SM SCT090
     FM300200 25006KT P6SM SCT080
     FM301400 24012KT P6SM SCT045
     FM301700 25014G22KT P6SM BKN060=

USA.gov is the U.S. government's official web portal to all federal, state and local government web resources and services.